Time;durP1;ratioP1;P1;durP2;ratioP2;P2;SDS_P1;SDS_P2;PMS_P1;PMS_P2;Temp;Humidity;BMP_temperature;BMP_pressure;BME280_temperature;BME280_humidity;BME280_pressure;Samples;Min_cycle;Max_cycle;Signal;HPM_P1;HPM_P2
2022/05/22 00:01:49;;;;;;;0.68;0.60;;;19.00;54.00;;;;;;5113377;28;20051;-75
2022/05/22 00:04:15;;;;;;;0.52;0.50;;;19.00;53.80;;;;;;5114355;28;20051;-76
2022/05/22 00:06:41;;;;;;;0.65;0.57;;;19.00;53.60;;;;;;5114860;28;20125;-75
2022/05/22 00:09:07;;;;;;;0.57;0.57;;;19.00;53.90;;;;;;5114643;28;20405;-74
2022/05/22 00:11:33;;;;;;;0.65;0.65;;;19.00;53.70;;;;;;5114640;28;20038;-75
2022/05/22 00:13:59;;;;;;;1.52;0.68;;;19.00;53.20;;;;;;5114518;28;20031;-74
2022/05/22 00:16:36;;;;;;;0.95;0.60;;;19.10;53.20;;;;;;5114114;28;20032;-74
2022/05/22 00:19:09;;;;;;;1.60;0.70;;;19.10;53.50;;;;;;5114751;28;20035;-74
2022/05/22 00:21:35;;;;;;;0.98;0.60;;;19.10;53.60;;;;;;5114642;28;20023;-75
2022/05/22 00:24:01;;;;;;;0.85;0.80;;;19.10;53.90;;;;;;5114658;28;20477;-75
2022/05/22 00:26:27;;;;;;;0.60;0.60;;;19.00;54.70;;;;;;5113721;28;20127;-76
2022/05/22 00:28:52;;;;;;;0.95;0.70;;;18.90;54.50;;;;;;5114273;28;20444;-76
2022/05/22 00:31:18;;;;;;;0.88;0.70;;;18.80;55.00;;;;;;5113835;28;20103;-76
2022/05/22 00:33:44;;;;;;;0.65;0.57;;;18.80;54.80;;;;;;5114414;28;20024;-76
2022/05/22 00:36:10;;;;;;;0.57;0.57;;;18.80;54.70;;;;;;5113895;28;20470;-80
2022/05/22 00:38:36;;;;;;;0.88;0.70;;;18.70;54.90;;;;;;5113960;28;20378;-73
2022/05/22 00:41:03;;;;;;;1.42;0.68;;;18.70;55.30;;;;;;5114325;28;20213;-76
2022/05/22 00:43:36;;;;;;;0.52;0.52;;;18.70;55.30;;;;;;5113434;28;20464;-76
2022/05/22 00:46:04;;;;;;;0.65;0.65;;;18.70;55.10;;;;;;5114074;28;20050;-76
2022/05/22 00:48:30;;;;;;;0.60;0.60;;;18.60;54.90;;;;;;5113512;28;20034;-76
2022/05/22 00:51:00;;;;;;;1.83;0.70;;;18.70;55.00;;;;;;5112971;28;20376;-75
2022/05/22 00:53:29;;;;;;;0.75;0.75;;;18.60;54.70;;;;;;5113291;28;20023;-75
2022/05/22 00:55:56;;;;;;;0.50;0.50;;;18.60;54.70;;;;;;5113905;28;20123;-75
2022/05/22 00:58:26;;;;;;;0.50;0.50;;;18.60;54.90;;;;;;5113009;28;20027;-75
2022/05/22 01:00:53;;;;;;;2.22;1.25;;;18.50;55.00;;;;;;5113864;28;20050;-75
2022/05/22 01:03:27;;;;;;;1.65;0.60;;;18.50;55.10;;;;;;5112917;28;20472;-75
2022/05/22 01:05:57;;;;;;;0.52;0.52;;;18.50;55.00;;;;;;5113548;28;20444;-75
2022/05/22 01:08:23;;;;;;;1.80;0.73;;;18.50;55.10;;;;;;5113173;28;20035;-75
2022/05/22 01:10:53;;;;;;;1.98;1.05;;;18.40;55.30;;;;;;5112146;28;20534;-75
2022/05/22 01:13:24;;;;;;;1.63;0.95;;;18.30;55.70;;;;;;5113067;28;20028;-75
2022/05/22 01:15:50;;;;;;;0.90;0.90;;;18.30;56.00;;;;;;5113810;28;20109;-74
2022/05/22 01:18:16;;;;;;;0.60;0.60;;;18.30;56.30;;;;;;5112906;28;20059;-76
2022/05/22 01:20:47;;;;;;;0.70;0.70;;;18.30;56.60;;;;;;5113157;28;20512;-76
2022/05/22 01:23:13;;;;;;;0.50;0.50;;;18.30;56.60;;;;;;5112928;28;20028;-79
2022/05/22 01:25:39;;;;;;;1.98;0.60;;;18.30;56.60;;;;;;5113670;28;20042;-76
2022/05/22 01:28:05;;;;;;;1.15;0.82;;;18.30;56.90;;;;;;5113351;28;20031;-76
2022/05/22 01:30:31;;;;;;;0.70;0.70;;;18.40;57.00;;;;;;5112332;28;20032;-76
2022/05/22 01:32:56;;;;;;;0.75;0.60;;;18.40;56.80;;;;;;5111855;28;20088;-75
2022/05/22 01:35:25;;;;;;;1.80;0.68;;;18.30;56.50;;;;;;5112965;28;20034;-76
2022/05/22 01:37:51;;;;;;;0.68;0.68;;;18.30;56.70;;;;;;5112632;28;20425;-75
2022/05/22 01:40:18;;;;;;;0.70;0.63;;;18.30;56.90;;;;;;5112394;28;20039;-74
2022/05/22 01:42:44;;;;;;;2.75;0.60;;;18.30;56.60;;;;;;5113013;28;20024;-75
2022/05/22 01:45:13;;;;;;;2.70;0.70;;;18.30;56.60;;;;;;5113106;28;20036;-75
2022/05/22 01:47:40;;;;;;;0.65;0.65;;;18.30;56.60;;;;;;5112714;28;20034;-74
2022/05/22 01:50:08;;;;;;;0.70;0.63;;;18.20;56.70;;;;;;5112919;28;20027;-76
2022/05/22 01:52:34;;;;;;;0.60;0.50;;;18.20;57.10;;;;;;5112237;28;20111;-75
2022/05/22 01:55:00;;;;;;;0.95;0.82;;;18.20;57.00;;;;;;5112835;28;20114;-75
2022/05/22 01:57:27;;;;;;;0.60;0.60;;;18.20;57.00;;;;;;5112141;28;20103;-75
2022/05/22 01:59:53;;;;;;;0.88;0.70;;;18.20;57.10;;;;;;5112785;28;20110;-75
2022/05/22 02:02:18;;;;;;;0.63;0.63;;;18.20;57.00;;;;;;5111675;28;20103;-75
2022/05/22 02:04:44;;;;;;;0.60;0.60;;;18.20;56.90;;;;;;5111057;28;20422;-75
2022/05/22 02:09:54;;;;;;;0.65;0.57;;;18.10;56.80;;;;;;5112365;28;20080;-76
2022/05/22 02:12:19;;;;;;;1.15;1.05;;;18.10;56.90;;;;;;5112033;28;20027;-74
2022/05/22 02:14:45;;;;;;;1.90;1.10;;;18.10;57.00;;;;;;5112419;28;20082;-75
2022/05/22 02:17:10;;;;;;;0.70;0.63;;;18.10;57.20;;;;;;5112533;27;20040;-77
2022/05/22 02:19:36;;;;;;;1.08;0.80;;;18.10;57.20;;;;;;5108376;27;20394;-75
2022/05/22 02:22:02;;;;;;;0.70;0.70;;;18.00;56.90;;;;;;5127828;27;20019;-75
2022/05/22 02:24:28;;;;;;;1.10;0.80;;;18.00;57.00;;;;;;5119066;27;20051;-75
2022/05/22 02:26:53;;;;;;;0.63;0.63;;;17.90;57.00;;;;;;5121393;27;20031;-75
2022/05/22 02:29:19;;;;;;;0.90;0.73;;;17.90;57.30;;;;;;5112208;28;20483;-77
2022/05/22 02:31:45;;;;;;;1.15;0.75;;;17.90;57.30;;;;;;5112049;28;20020;-76
2022/05/22 02:34:10;;;;;;;1.25;0.88;;;17.90;57.60;;;;;;5112611;28;20034;-75
2022/05/22 02:36:36;;;;;;;0.70;0.70;;;17.90;58.00;;;;;;5111697;28;20032;-75
2022/05/22 02:39:02;;;;;;;2.90;0.73;;;17.90;57.80;;;;;;5112389;28;20034;-75
2022/05/22 02:41:28;;;;;;;0.65;0.60;;;17.80;58.10;;;;;;5111564;28;20020;-75
2022/05/22 02:43:54;;;;;;;1.83;0.90;;;17.80;58.20;;;;;;5112355;28;20024;-75
2022/05/22 02:46:21;;;;;;;1.00;0.77;;;17.80;58.30;;;;;;5110281;28;20354;-75
2022/05/22 02:48:47;;;;;;;1.88;0.88;;;17.80;58.40;;;;;;5112187;28;20034;-75
2022/05/22 02:51:17;;;;;;;1.38;0.63;;;17.90;58.30;;;;;;5112231;28;20413;-75
2022/05/22 02:53:43;;;;;;;0.63;0.60;;;17.80;58.50;;;;;;5111253;28;20051;-76
2022/05/22 02:56:12;;;;;;;0.70;0.70;;;17.80;58.80;;;;;;5111832;28;20327;-76
2022/05/22 02:58:38;;;;;;;0.90;0.70;;;17.80;58.50;;;;;;5111635;28;20024;-76
2022/05/22 03:01:04;;;;;;;1.08;0.55;;;17.70;58.30;;;;;;5111953;28;20031;-76
2022/05/22 03:03:31;;;;;;;0.93;0.65;;;17.70;58.40;;;;;;5111496;28;20072;-74
2022/05/22 03:08:41;;;;;;;2.45;0.70;;;17.60;59.30;;;;;;5111103;28;20078;-74
2022/05/22 03:11:07;;;;;;;1.98;0.75;;;17.60;59.20;;;;;;5111615;28;20055;-75
2022/05/22 03:13:33;;;;;;;1.75;0.85;;;17.60;59.30;;;;;;5111350;28;20472;-74
2022/05/22 03:15:59;;;;;;;1.20;0.77;;;17.60;59.20;;;;;;5112134;28;20050;-74
2022/05/22 03:18:25;;;;;;;1.23;0.73;;;17.60;58.90;;;;;;5111035;28;20020;-75
2022/05/22 03:20:51;;;;;;;1.27;0.80;;;17.60;59.00;;;;;;5111938;28;20039;-76
2022/05/22 03:23:16;;;;;;;0.70;0.50;;;17.60;59.10;;;;;;5111684;28;20403;-75
2022/05/22 03:25:44;;;;;;;0.55;0.50;;;17.60;59.30;;;;;;5111382;28;20024;-76
2022/05/22 03:28:10;;;;;;;1.55;0.75;;;17.60;58.80;;;;;;5111973;28;20031;-75
2022/05/22 03:30:36;;;;;;;1.38;0.70;;;17.60;58.80;;;;;;5109889;28;20031;-75
2022/05/22 03:33:02;;;;;;;0.60;0.60;;;17.60;59.10;;;;;;5111898;28;20521;-75
2022/05/22 03:35:27;;;;;;;0.93;0.70;;;17.60;59.30;;;;;;5112555;28;20020;-76
2022/05/22 03:37:53;;;;;;;0.60;0.50;;;17.60;59.30;;;;;;5115256;28;20077;-75
2022/05/22 03:40:19;;;;;;;0.70;0.60;;;17.60;59.50;;;;;;5115449;28;20456;-75
2022/05/22 03:42:44;;;;;;;1.63;0.80;;;17.60;59.70;;;;;;5114883;28;20101;-75
2022/05/22 03:45:11;;;;;;;1.80;1.02;;;17.60;59.60;;;;;;5115397;28;20449;-74
2022/05/22 03:47:38;;;;;;;0.70;0.60;;;17.50;59.40;;;;;;5114835;28;20034;-76
2022/05/22 03:50:06;;;;;;;0.80;0.80;;;17.50;59.50;;;;;;5114974;28;20341;-75
2022/05/22 03:52:36;;;;;;;3.20;0.88;;;17.50;59.60;;;;;;5114627;28;20383;-76
2022/05/22 03:55:02;;;;;;;0.73;0.70;;;17.50;59.50;;;;;;5114927;28;20110;-75
2022/05/22 03:57:28;;;;;;;0.70;0.70;;;17.50;59.40;;;;;;5114525;28;20040;-76
2022/05/22 03:59:53;;;;;;;0.95;0.82;;;17.40;59.50;;;;;;5115104;28;20030;-76
2022/05/22 04:02:19;;;;;;;0.90;0.80;;;17.40;59.70;;;;;;5114844;28;20024;-76
2022/05/22 04:04:45;;;;;;;1.10;0.77;;;17.50;59.60;;;;;;5114410;28;20357;-76
2022/05/22 04:07:11;;;;;;;1.30;0.70;;;17.50;59.30;;;;;;5115041;28;20047;-75
2022/05/22 04:09:37;;;;;;;0.60;0.60;;;17.50;58.70;;;;;;5114290;28;20035;-76
2022/05/22 04:12:07;;;;;;;1.73;1.00;;;17.50;58.90;;;;;;5114309;28;20015;-76
2022/05/22 04:14:32;;;;;;;0.77;0.73;;;17.60;58.50;;;;;;5114069;28;20059;-76
2022/05/22 04:16:58;;;;;;;1.73;0.70;;;17.60;58.40;;;;;;5114353;28;20476;-75
2022/05/22 04:19:24;;;;;;;1.02;0.80;;;17.80;58.00;;;;;;5114644;28;20028;-75
2022/05/22 04:21:49;;;;;;;1.70;0.90;;;17.90;58.40;;;;;;5113699;28;20027;-76
2022/05/22 04:27:04;;;;;;;1.00;0.85;;;18.30;57.20;;;;;;5111970;28;20107;-75
2022/05/22 04:29:31;;;;;;;0.47;0.47;;;18.50;55.90;;;;;;5113249;28;20015;-75
2022/05/22 04:31:57;;;;;;;0.60;0.60;;;18.60;55.60;;;;;;5113791;28;20488;-75
2022/05/22 04:34:22;;;;;;;2.55;0.77;;;18.80;54.30;;;;;;5110910;28;20028;-75
2022/05/22 04:36:48;;;;;;;1.20;0.55;;;18.80;54.50;;;;;;5112977;28;20027;-75
2022/05/22 04:39:14;;;;;;;1.23;0.80;;;18.90;53.30;;;;;;5113151;28;20023;-74
2022/05/22 04:41:39;;;;;;;4.07;1.00;;;19.10;53.50;;;;;;5112923;28;20132;-74
2022/05/22 04:44:05;;;;;;;0.63;0.63;;;19.20;53.30;;;;;;5113838;28;20030;-74
2022/05/22 04:46:31;;;;;;;2.47;0.70;;;19.20;52.40;;;;;;5112869;28;20462;-74
2022/05/22 04:48:57;;;;;;;0.73;0.73;;;19.30;52.40;;;;;;5113922;28;20504;-74
2022/05/22 04:51:22;;;;;;;1.77;0.57;;;19.40;52.40;;;;;;5113709;28;20035;-74
2022/05/22 04:53:49;;;;;;;1.13;0.80;;;19.60;52.50;;;;;;5113041;28;20563;-74
2022/05/22 04:56:15;;;;;;;0.98;0.60;;;19.80;51.90;;;;;;5113731;28;20036;-74
2022/05/22 04:58:40;;;;;;;0.77;0.60;;;20.00;51.50;;;;;;5112913;28;20449;-74
2022/05/22 05:01:07;;;;;;;1.23;1.10;;;20.20;51.10;;;;;;5113268;28;20065;-74
2022/05/22 05:03:34;;;;;;;1.35;0.82;;;20.50;49.70;;;;;;5112988;28;20024;-75
2022/05/22 05:05:59;;;;;;;2.47;1.17;;;20.70;49.30;;;;;;5113605;28;20031;-74
2022/05/22 05:08:27;;;;;;;1.95;0.70;;;21.00;48.60;;;;;;5113478;28;20387;-75
2022/05/22 05:10:52;;;;;;;1.23;1.13;;;21.10;48.00;;;;;;5112867;28;20031;-75
2022/05/22 05:13:20;;;;;;;1.42;0.70;;;21.00;47.20;;;;;;5113393;28;20020;-75
2022/05/22 05:15:46;;;;;;;2.42;0.93;;;21.10;46.80;;;;;;5111173;28;20086;-75
2022/05/22 05:18:13;;;;;;;1.25;0.80;;;21.10;47.40;;;;;;5113401;28;20437;-75
2022/05/22 05:20:39;;;;;;;2.25;1.02;;;21.00;47.70;;;;;;5112866;28;20458;-75
2022/05/22 05:23:05;;;;;;;2.28;1.10;;;20.90;46.90;;;;;;5113142;28;20028;-75
2022/05/22 05:25:31;;;;;;;1.02;0.93;;;20.80;47.50;;;;;;5112552;28;20332;-79
2022/05/22 05:27:57;;;;;;;3.38;0.80;;;20.70;48.00;;;;;;5112078;28;20058;-74
2022/05/22 05:30:23;;;;;;;0.85;0.82;;;20.50;48.60;;;;;;5113292;28;20051;-75
2022/05/22 05:33:12;;;;;;;0.98;0.95;;;20.20;48.70;;;;;;5112650;28;20082;-76
2022/05/22 05:35:38;;;;;;;1.23;0.80;;;20.10;50.20;;;;;;5112297;28;20031;-75
2022/05/22 05:38:03;;;;;;;1.15;0.85;;;19.90;49.90;;;;;;5113011;28;20380;-75
2022/05/22 05:40:29;;;;;;;0.80;0.70;;;19.90;50.60;;;;;;5111733;28;20072;-74
2022/05/22 05:42:55;;;;;;;1.40;1.10;;;19.80;51.30;;;;;;5112130;28;20099;-76
2022/05/22 05:45:21;;;;;;;1.10;0.93;;;19.70;50.40;;;;;;5112844;28;20268;-74
2022/05/22 05:47:50;;;;;;;1.92;0.90;;;19.60;50.70;;;;;;5111720;28;20054;-74
2022/05/22 05:50:22;;;;;;;0.75;0.73;;;19.60;50.70;;;;;;5112796;28;20034;-74
2022/05/22 05:52:49;;;;;;;2.38;1.05;;;19.50;51.30;;;;;;5112271;28;20020;-74
2022/05/22 05:55:15;;;;;;;1.80;1.33;;;19.50;51.30;;;;;;5112578;28;20036;-75
2022/05/22 05:57:41;;;;;;;1.33;1.23;;;19.50;51.60;;;;;;5109799;28;20364;-74
2022/05/22 06:00:09;;;;;;;2.35;1.10;;;19.40;52.10;;;;;;5113091;28;20118;-75
2022/05/22 06:02:35;;;;;;;1.23;0.85;;;19.40;52.30;;;;;;5112542;28;20028;-74
2022/05/22 06:05:01;;;;;;;1.48;1.05;;;19.40;52.80;;;;;;5110478;28;20160;-74
2022/05/22 06:07:26;;;;;;;2.15;1.17;;;19.30;52.50;;;;;;5112487;28;20110;-75
2022/05/22 06:09:52;;;;;;;2.17;1.20;;;19.30;52.80;;;;;;5112085;28;20436;-75
2022/05/22 06:12:18;;;;;;;1.75;0.70;;;19.30;53.20;;;;;;5112376;28;20028;-76
2022/05/22 06:14:44;;;;;;;1.20;0.98;;;19.30;52.50;;;;;;5111444;28;20112;-76
2022/05/22 06:17:10;;;;;;;2.33;1.10;;;19.20;52.60;;;;;;5112267;28;20043;-76
2022/05/22 06:19:55;;;;;;;2.75;1.30;;;19.10;53.00;;;;;;5111673;28;20043;-75
2022/05/22 06:22:23;;;;;;;1.58;1.10;;;19.10;53.30;;;;;;5112339;28;20030;-76
2022/05/22 06:24:49;;;;;;;1.45;0.98;;;19.20;53.40;;;;;;5111366;28;20415;-76
2022/05/22 06:27:15;;;;;;;5.03;1.50;;;19.20;53.50;;;;;;5112225;27;20503;-74
2022/05/22 06:29:43;;;;;;;1.08;0.98;;;19.00;53.00;;;;;;5117207;27;20027;-76
2022/05/22 06:32:11;;;;;;;1.75;1.23;;;19.10;53.10;;;;;;5113146;28;20544;-75
2022/05/22 06:34:41;;;;;;;1.70;1.10;;;19.00;52.80;;;;;;5113660;28;20020;-75
2022/05/22 06:37:09;;;;;;;1.20;1.05;;;19.00;53.00;;;;;;5112031;28;21600;-74
2022/05/22 06:39:52;;;;;;;2.80;1.48;;;19.00;52.60;;;;;;5110129;28;20027;-78
2022/05/22 06:42:26;;;;;;;1.13;1.00;;;19.00;52.80;;;;;;5109546;28;20103;-75
2022/05/22 06:44:59;;;;;;;1.50;1.17;;;19.10;53.80;;;;;;5108797;28;20031;-74
2022/05/22 06:47:27;;;;;;;1.63;0.82;;;19.10;52.40;;;;;;5110601;28;20027;-74
2022/05/22 06:49:53;;;;;;;1.27;0.90;;;19.10;52.60;;;;;;5110002;28;20027;-75
2022/05/22 06:52:19;;;;;;;1.27;0.98;;;19.20;52.60;;;;;;5110404;28;20031;-75
2022/05/22 06:54:46;;;;;;;1.00;0.80;;;19.30;52.90;;;;;;5110365;28;20019;-74
2022/05/22 06:57:15;;;;;;;2.97;1.30;;;19.40;52.70;;;;;;5111753;28;20132;-74
2022/05/22 06:59:42;;;;;;;1.35;0.90;;;19.60;53.20;;;;;;5111400;28;20111;-75
2022/05/22 07:02:07;;;;;;;1.05;0.70;;;19.60;51.70;;;;;;5111762;28;20099;-74
2022/05/22 07:04:33;;;;;;;1.35;1.20;;;19.80;51.90;;;;;;5110801;28;20432;-75
2022/05/22 07:06:59;;;;;;;1.25;0.93;;;19.90;52.10;;;;;;5109790;28;20032;-75
2022/05/22 07:09:24;;;;;;;1.13;0.80;;;20.00;51.60;;;;;;5111716;28;20103;-75
2022/05/22 07:11:53;;;;;;;2.50;1.00;;;20.20;50.60;;;;;;5114001;28;20371;-74
2022/05/22 07:14:20;;;;;;;1.45;1.02;;;20.30;50.90;;;;;;5114251;28;20114;-75
2022/05/22 07:16:46;;;;;;;1.90;1.00;;;20.40;51.50;;;;;;5112287;28;20035;-76
2022/05/22 07:19:12;;;;;;;1.58;1.08;;;20.30;52.10;;;;;;5114499;28;20432;-75
2022/05/22 07:21:37;;;;;;;1.80;0.95;;;20.20;50.40;;;;;;5113786;28;20024;-75
2022/05/22 07:24:03;;;;;;;2.58;0.90;;;20.40;51.00;;;;;;5114318;28;20545;-74
2022/05/22 07:26:30;;;;;;;1.65;0.93;;;20.60;51.40;;;;;;5114136;28;20027;-74
2022/05/22 07:28:58;;;;;;;1.00;0.73;;;20.90;50.70;;;;;;5113655;28;20016;-76
2022/05/22 07:31:25;;;;;;;1.33;0.90;;;21.40;49.10;;;;;;5114307;28;20038;-74
2022/05/22 07:33:51;;;;;;;1.23;0.80;;;21.70;48.80;;;;;;5114647;28;20220;-75
2022/05/22 07:36:18;;;;;;;3.15;1.17;;;22.10;48.60;;;;;;5115246;28;20027;-75
2022/05/22 07:38:44;;;;;;;2.08;0.80;;;22.40;45.90;;;;;;5112796;28;20024;-75
2022/05/22 07:41:12;;;;;;;1.00;0.90;;;22.50;46.30;;;;;;5113191;28;20020;-76
2022/05/22 07:43:38;;;;;;;0.80;0.80;;;22.80;45.90;;;;;;5113623;28;20051;-79
2022/05/22 07:46:05;;;;;;;3.22;1.40;;;22.90;44.30;;;;;;5113661;28;20440;-76
2022/05/22 07:48:31;;;;;;;2.10;0.90;;;23.20;44.60;;;;;;5114062;28;20028;-76
2022/05/22 07:50:59;;;;;;;1.58;0.90;;;23.40;44.50;;;;;;5113162;28;20393;-77
2022/05/22 07:53:26;;;;;;;3.13;1.05;;;23.60;44.30;;;;;;5113854;28;20043;-76
2022/05/22 07:55:52;;;;;;;2.65;1.10;;;23.90;44.10;;;;;;5112719;28;20518;-75
2022/05/22 07:58:20;;;;;;;1.40;1.10;;;24.20;44.00;;;;;;5113763;28;20059;-75
2022/05/22 08:00:46;;;;;;;7.00;1.15;;;24.50;43.30;;;;;;5112751;28;20020;-75
2022/05/22 08:03:14;;;;;;;1.60;1.25;;;24.70;41.50;;;;;;5113663;28;20531;-76
2022/05/22 08:05:40;;;;;;;1.63;0.77;;;25.30;42.60;;;;;;5113425;28;20034;-74
2022/05/22 08:08:07;;;;;;;3.10;0.80;;;25.50;40.10;;;;;;5113479;28;20092;-79
2022/05/22 08:10:33;;;;;;;0.98;0.93;;;25.50;40.70;;;;;;5112887;28;20027;-77
2022/05/22 08:12:59;;;;;;;2.75;0.88;;;25.70;40.90;;;;;;5112562;28;20129;-72
2022/05/22 08:15:26;;;;;;;1.00;0.80;;;26.10;40.00;;;;;;5114036;28;20047;-78
2022/05/22 08:17:52;;;;;;;1.58;0.80;;;25.90;38.80;;;;;;5114305;28;20032;-79
2022/05/22 08:20:20;;;;;;;2.67;0.93;;;25.70;39.00;;;;;;5114672;28;20028;-76
2022/05/22 08:22:46;;;;;;;0.63;0.60;;;25.30;39.60;;;;;;5113556;28;20587;-77
2022/05/22 08:25:31;;;;;;;3.45;0.90;;;25.10;38.80;;;;;;5114124;28;20388;-76
2022/05/22 08:27:58;;;;;;;1.75;1.38;;;24.60;39.90;;;;;;5113750;28;20036;-77
2022/05/22 08:30:26;;;;;;;2.10;0.98;;;24.70;41.60;;;;;;5115000;28;20119;-77
2022/05/22 08:32:53;;;;;;;1.40;0.98;;;24.80;40.90;;;;;;5114120;28;20027;-77
2022/05/22 08:35:25;;;;;;;1.23;0.70;;;24.60;40.60;;;;;;5114703;28;20110;-77
2022/05/22 08:37:52;;;;;;;0.93;0.82;;;24.30;39.90;;;;;;5113490;28;20073;-75
2022/05/22 08:40:20;;;;;;;2.15;0.80;;;24.10;41.40;;;;;;5114200;28;20418;-75
2022/05/22 08:42:56;;;;;;;1.20;0.82;;;24.10;41.80;;;;;;5113083;28;20484;-78
2022/05/22 08:45:31;;;;;;;1.10;0.85;;;24.00;41.50;;;;;;5112947;28;20023;-75
2022/05/22 08:48:14;;;;;;;1.35;0.95;;;24.10;41.10;;;;;;5113048;28;20027;-77
2022/05/22 08:50:41;;;;;;;0.93;0.80;;;24.00;41.70;;;;;;5113997;28;20016;-75
2022/05/22 08:53:25;;;;;;;1.55;1.13;;;23.90;42.10;;;;;;5114208;28;20122;-77
2022/05/22 08:59:10;;;;;;;0.60;0.60;;;23.60;41.30;;;;;;5113173;28;20050;-77
2022/05/22 09:01:38;;;;;;;1.23;0.85;;;23.60;42.70;;;;;;5114118;28;20102;-74
2022/05/22 09:04:21;;;;;;;0.75;0.60;;;23.40;42.80;;;;;;5112702;28;20127;-75
2022/05/22 09:06:57;;;;;;;2.67;1.35;;;23.50;43.90;;;;;;5112970;28;20537;-84
2022/05/22 09:09:27;;;;;;;1.90;0.85;;;23.50;41.70;;;;;;5112548;28;20031;-81
2022/05/22 09:12:28;;;;;;;1.40;0.90;;;23.40;42.90;;;;;;5111371;28;20026;-81
2022/05/22 09:15:30;;;;;;;1.45;1.00;;;23.40;41.50;;;;;;5111167;28;20118;-81
2022/05/22 09:18:05;;;;;;;1.23;0.70;;;23.50;42.70;;;;;;5111411;28;20032;-79
2022/05/22 09:20:42;;;;;;;0.70;0.70;;;23.40;42.20;;;;;;5112398;28;20662;-81
2022/05/22 09:23:52;;;;;;;2.50;0.80;;;23.50;43.60;;;;;;5110668;28;20036;-82
2022/05/22 09:26:27;;;;;;;0.87;0.80;;;23.30;42.30;;;;;;5081102;28;20043;-81
2022/05/22 09:29:14;;;;;;;2.95;1.00;;;23.20;42.30;;;;;;5111624;28;20019;-81
2022/05/22 09:32:09;;;;;;;0.63;0.63;;;23.20;43.60;;;;;;5107906;28;20034;-82
2022/05/22 09:35:00;;;;;;;1.40;0.77;;;23.20;44.50;;;;;;5109901;28;20138;-79
2022/05/22 09:37:59;;;;;;;1.25;0.70;;;23.10;42.80;;;;;;5110005;28;20023;-81
2022/05/22 09:40:29;;;;;;;0.90;0.85;;;23.00;43.60;;;;;;5109491;28;20031;-82
2022/05/22 09:42:55;;;;;;;1.00;0.90;;;23.00;43.80;;;;;;5111307;28;20376;-81
2022/05/22 09:45:46;;;;;;;0.88;0.70;;;23.00;44.20;;;;;;5111397;28;20260;-82
2022/05/22 09:48:42;;;;;;;0.77;0.75;;;23.00;44.10;;;;;;5113430;28;20073;-81
2022/05/22 09:51:18;;;;;;;0.80;0.80;;;23.10;43.00;;;;;;5108324;28;20031;-82
2022/05/22 09:54:02;;;;;;;1.10;0.77;;;23.20;42.90;;;;;;5108854;28;20069;-80
2022/05/22 09:56:53;;;;;;;1.33;0.90;;;23.30;42.60;;;;;;5111117;28;20036;-81
2022/05/22 09:59:27;;;;;;;;;;;23.20;44.00;;;;;;5113455;28;20076;-83
2022/05/22 10:01:56;;;;;;;1.60;1.10;;;23.30;42.90;;;;;;5112228;28;19931;-81
2022/05/22 10:04:49;;;;;;;0.80;0.80;;;23.30;45.20;;;;;;5113514;28;20377;-81
2022/05/22 10:07:45;;;;;;;0.93;0.77;;;23.50;44.60;;;;;;5084865;27;20082;-76
2022/05/22 10:10:20;;;;;;;2.47;0.80;;;23.70;45.20;;;;;;5108148;27;20112;-77
2022/05/22 10:13:02;;;;;;;1.88;1.10;;;23.70;44.50;;;;;;5112565;28;20019;-76
2022/05/22 10:16:06;;;;;;;1.77;1.25;;;23.70;44.10;;;;;;5113035;28;20118;-77
2022/05/22 10:19:09;;;;;;;1.42;0.80;;;23.60;42.90;;;;;;5112932;28;20028;-74
2022/05/22 10:21:49;;;;;;;0.95;0.65;;;23.60;43.20;;;;;;5112544;27;20518;-74
2022/05/22 10:24:39;;;;;;;0.73;0.73;;;23.70;43.10;;;;;;5111706;28;20076;-75
2022/05/22 10:27:36;;;;;;;1.17;0.82;;;23.70;42.40;;;;;;5110676;28;20042;-74
2022/05/22 10:30:23;;;;;;;0.90;0.70;;;23.70;41.60;;;;;;5110229;28;20085;-73
2022/05/22 10:33:29;;;;;;;1.58;0.80;;;23.80;42.10;;;;;;5109813;28;20106;-73
2022/05/22 10:36:20;;;;;;;1.67;0.80;;;23.70;41.00;;;;;;5100826;28;20110;-73
2022/05/22 10:39:00;;;;;;;2.90;0.77;;;23.60;40.80;;;;;;5110335;28;20101;-74
2022/05/22 10:44:36;;;;;;;0.55;0.55;;;23.60;41.80;;;;;;5112805;28;20447;-72
2022/05/22 10:47:02;;;;;;;2.63;1.00;;;23.70;41.70;;;;;;5115305;28;20100;-74
2022/05/22 10:49:39;;;;;;;1.33;0.98;;;23.70;42.00;;;;;;5116190;28;20031;-74
2022/05/22 10:52:07;;;;;;;0.93;0.55;;;23.70;41.70;;;;;;5115221;28;20118;-73
2022/05/22 10:54:47;;;;;;;0.73;0.68;;;23.60;41.60;;;;;;5115904;28;20114;-73
2022/05/22 10:57:17;;;;;;;0.93;0.60;;;23.60;42.00;;;;;;5115894;28;20116;-75
2022/05/22 10:59:44;;;;;;;0.85;0.60;;;23.60;41.50;;;;;;5116086;28;20464;-72
2022/05/22 11:02:22;;;;;;;1.77;0.85;;;23.50;41.10;;;;;;5115653;28;20102;-72
2022/05/22 11:04:49;;;;;;;1.70;0.60;;;23.50;42.10;;;;;;5115270;28;20032;-74
2022/05/22 11:07:29;;;;;;;0.93;0.77;;;23.40;41.10;;;;;;5115682;28;20031;-73
2022/05/22 11:10:04;;;;;;;0.75;0.57;;;23.40;42.80;;;;;;5111973;28;20027;-73
2022/05/22 11:12:30;;;;;;;0.52;0.50;;;23.40;43.30;;;;;;5110676;28;20038;-74
2022/05/22 11:15:37;;;;;;;0.80;0.70;;;23.30;42.50;;;;;;5112481;28;20044;-75
2022/05/22 11:18:23;;;;;;;2.88;0.80;;;23.30;41.90;;;;;;5111609;28;20075;-72
2022/05/22 11:20:57;;;;;;;0.73;0.55;;;23.40;41.50;;;;;;5115167;28;20386;-73
2022/05/22 11:23:25;;;;;;;1.00;0.63;;;23.30;40.40;;;;;;5115510;28;20043;-73
2022/05/22 11:26:34;;;;;;;0.52;0.50;;;23.20;41.10;;;;;;5114664;28;20058;-73
2022/05/22 11:29:28;;;;;;;1.92;0.80;;;23.40;43.10;;;;;;5114652;28;20068;-73
2022/05/22 11:32:23;;;;;;;0.50;0.50;;;23.40;41.10;;;;;;5114924;28;20026;-72
2022/05/22 11:34:54;;;;;;;0.70;0.50;;;23.40;42.90;;;;;;5114462;28;20423;-72
2022/05/22 11:37:22;;;;;;;1.50;0.70;;;23.40;41.10;;;;;;5115043;28;20058;-73
2022/05/22 11:39:57;;;;;;;0.80;0.70;;;23.40;42.80;;;;;;5114601;28;20032;-74
2022/05/22 11:42:34;;;;;;;1.23;0.88;;;23.50;42.20;;;;;;5114378;28;20030;-73
2022/05/22 11:45:15;;;;;;;2.42;0.70;;;23.50;41.60;;;;;;5112981;28;20028;-73
2022/05/22 11:47:59;;;;;;;2.38;0.80;;;23.50;41.70;;;;;;5115061;28;20070;-73
2022/05/22 11:50:38;;;;;;;0.82;0.63;;;23.40;41.80;;;;;;5114545;28;20072;-73
2022/05/22 11:53:15;;;;;;;0.80;0.80;;;23.50;42.40;;;;;;5114548;28;20032;-73
2022/05/22 11:55:59;;;;;;;0.63;0.60;;;23.50;42.30;;;;;;5113459;28;20034;-73
2022/05/22 11:58:55;;;;;;;0.77;0.77;;;23.50;41.70;;;;;;5114721;28;20032;-73
2022/05/22 12:01:54;;;;;;;1.00;0.70;;;23.60;41.60;;;;;;5114671;28;20118;-73
2022/05/22 12:04:37;;;;;;;1.45;1.00;;;23.50;40.70;;;;;;5114533;28;20103;-74
2022/05/22 12:07:27;;;;;;;0.85;0.70;;;23.40;42.30;;;;;;5113246;28;20084;-74
2022/05/22 12:10:10;;;;;;;1.55;0.98;;;23.30;40.40;;;;;;5112592;28;20459;-75
2022/05/22 12:12:55;;;;;;;0.63;0.63;;;23.20;41.90;;;;;;5114304;28;20039;-72
2022/05/22 12:15:36;;;;;;;0.60;0.60;;;23.10;41.20;;;;;;5113897;28;20126;-72
2022/05/22 12:18:27;;;;;;;3.20;0.70;;;23.00;41.10;;;;;;5113567;28;20031;-74
2022/05/22 12:21:03;;;;;;;0.60;0.55;;;23.00;42.60;;;;;;5113717;28;20038;-74
2022/05/22 12:23:36;;;;;;;0.90;0.80;;;23.00;42.70;;;;;;5114571;28;20030;-74
2022/05/22 12:26:06;;;;;;;2.00;0.90;;;23.00;42.80;;;;;;5113668;28;20069;-73
2022/05/22 12:28:59;;;;;;;0.90;0.70;;;23.10;42.90;;;;;;5114007;28;20027;-73
2022/05/22 12:31:51;;;;;;;0.77;0.70;;;23.20;42.80;;;;;;5114706;28;20110;-73
2022/05/22 12:34:44;;;;;;;1.10;0.73;;;23.30;42.50;;;;;;5108551;28;20054;-73
2022/05/22 12:37:23;;;;;;;1.00;0.80;;;23.30;43.30;;;;;;5113071;28;20027;-73
2022/05/22 12:39:58;;;;;;;0.70;0.70;;;23.30;43.20;;;;;;5112936;28;20468;-72
2022/05/22 12:42:31;;;;;;;1.98;1.10;;;23.30;43.50;;;;;;5114065;28;20020;-73
2022/05/22 12:44:57;;;;;;;0.65;0.63;;;23.20;43.00;;;;;;5113464;28;20124;-73
2022/05/22 12:47:43;;;;;;;2.55;1.05;;;23.20;42.50;;;;;;5113866;28;20476;-73
2022/05/22 12:50:10;;;;;;;0.88;0.80;;;23.20;42.00;;;;;;5113597;28;20024;-73
2022/05/22 12:52:39;;;;;;;0.60;0.55;;;23.20;40.80;;;;;;5114199;28;20036;-75
2022/05/22 12:55:22;;;;;;;2.97;0.80;;;23.20;40.90;;;;;;5108190;28;20069;-73
2022/05/22 12:58:36;;;;;;;0.77;0.70;;;23.20;41.20;;;;;;5093813;28;20020;-74
2022/05/22 13:01:02;;;;;;;1.73;0.70;;;23.20;39.90;;;;;;5085337;28;20040;-72
2022/05/22 13:03:35;;;;;;;0.93;0.80;;;23.20;41.50;;;;;;5113381;28;20030;-72
2022/05/22 13:06:05;;;;;;;2.15;1.27;;;23.20;41.20;;;;;;5113185;28;20027;-74
2022/05/22 13:08:44;;;;;;;3.00;1.30;;;23.20;42.40;;;;;;5113650;28;20023;-73
2022/05/22 13:11:17;;;;;;;1.60;0.55;;;23.30;41.60;;;;;;5113157;28;20156;-74
2022/05/22 13:13:50;;;;;;;0.73;0.63;;;23.30;40.40;;;;;;5113457;28;20031;-73
2022/05/22 13:16:26;;;;;;;0.93;0.68;;;23.30;40.00;;;;;;5112850;28;20040;-73
2022/05/22 13:18:52;;;;;;;0.82;0.52;;;23.30;40.80;;;;;;5113272;28;20034;-74
2022/05/22 13:21:47;;;;;;;1.20;0.90;;;23.30;40.70;;;;;;5113539;28;20051;-73
2022/05/22 13:24:15;;;;;;;1.63;0.70;;;23.20;40.60;;;;;;5098852;28;20032;-73
2022/05/22 13:26:42;;;;;;;1.50;1.00;;;23.20;40.80;;;;;;5112674;28;20036;-73